createdAt,value
2019-01-04T00:00:45.947Z,5.10
2019-01-04T00:05:41.522Z,5.10
2019-01-04T00:10:37.039Z,5.20
2019-01-04T00:15:32.657Z,5.20
2019-01-04T00:20:28.159Z,5.20
2019-01-04T00:25:23.928Z,5.20
2019-01-04T00:30:22.652Z,5.20
2019-01-04T00:35:18.294Z,5.20
2019-01-04T00:40:13.964Z,5.20
2019-01-04T00:45:09.783Z,5.20
2019-01-04T00:50:06.138Z,5.10
2019-01-04T00:55:16.290Z,4.90
2019-01-04T01:01:22.621Z,4.60
2019-01-04T01:07:26.150Z,4.50
2019-01-04T01:13:34.633Z,4.40
2019-01-04T01:19:16.084Z,4.40
2019-01-04T01:25:00.266Z,4.30
2019-01-04T01:30:18.043Z,4.20
2019-01-04T01:35:54.398Z,4.10
2019-01-04T01:42:13.922Z,4.10
2019-01-04T01:47:23.641Z,4.10
2019-01-04T01:52:29.392Z,3.90
2019-01-04T01:57:25.001Z,3.90
2019-01-04T02:02:20.496Z,3.80
2019-01-04T02:07:16.028Z,3.70
2019-01-04T02:12:11.549Z,3.80
2019-01-04T02:17:07.123Z,3.90
2019-01-04T02:22:02.830Z,4.00
2019-01-04T02:26:58.419Z,4.20
2019-01-04T02:31:54.131Z,4.40
2019-01-04T02:36:49.624Z,4.50
2019-01-04T02:41:45.083Z,4.60
2019-01-04T02:46:40.805Z,4.70
2019-01-04T02:51:36.501Z,4.80
2019-01-04T02:56:34.348Z,4.90
2019-01-04T03:01:29.993Z,4.90
2019-01-04T03:06:25.713Z,4.90
2019-01-04T03:11:21.355Z,4.90
2019-01-04T03:16:17.300Z,4.90
2019-01-04T03:21:12.877Z,4.90
2019-01-04T03:26:08.381Z,4.90
2019-01-04T03:31:03.819Z,4.90
2019-01-04T03:36:00.691Z,4.90
2019-01-04T03:40:56.246Z,4.80
2019-01-04T03:45:51.783Z,4.70
2019-01-04T03:50:47.498Z,4.60
2019-01-04T03:55:43.001Z,4.50
2019-01-04T04:00:38.462Z,4.40
2019-01-04T04:05:34.067Z,4.40
2019-01-04T04:10:29.575Z,4.30
2019-01-04T04:15:25.054Z,4.50
2019-01-04T04:20:20.667Z,4.50
2019-01-04T04:25:16.352Z,4.50
2019-01-04T04:30:11.790Z,4.60
2019-01-04T04:35:07.416Z,4.60
2019-01-04T04:40:03.103Z,4.60
2019-01-04T04:44:58.653Z,4.60
2019-01-04T04:49:54.278Z,4.60
2019-01-04T04:54:49.796Z,4.70
2019-01-04T04:59:45.356Z,4.70
2019-01-04T05:04:40.885Z,4.70
2019-01-04T05:09:36.458Z,4.80
2019-01-04T05:14:32.011Z,4.80
2019-01-04T05:19:27.644Z,4.80
2019-01-04T05:24:23.123Z,4.80
2019-01-04T05:29:18.557Z,4.80
2019-01-04T05:34:14.046Z,4.80
2019-01-04T05:39:09.761Z,4.80
2019-01-04T05:44:05.257Z,4.90
2019-01-04T05:49:00.711Z,4.90
2019-01-04T05:53:56.200Z,4.90
2019-01-04T05:58:51.645Z,4.90
2019-01-04T06:03:47.120Z,4.90
2019-01-04T06:08:42.572Z,4.90
2019-01-04T06:13:38.150Z,5.00
2019-01-04T06:18:33.600Z,5.10
2019-01-04T06:23:29.163Z,5.10
2019-01-04T06:28:24.587Z,4.90
2019-01-04T06:33:20.106Z,5.00
2019-01-04T06:38:15.602Z,4.90
2019-01-04T06:43:11.076Z,4.90
2019-01-04T06:48:06.642Z,4.80
2019-01-04T06:53:02.120Z,4.70
2019-01-04T06:57:57.606Z,4.70
2019-01-04T07:02:53.126Z,4.50
2019-01-04T07:07:48.588Z,4.20
2019-01-04T07:12:44.088Z,3.90
2019-01-04T07:17:39.580Z,3.60
2019-01-04T07:22:35.047Z,3.40
2019-01-04T07:27:30.547Z,3.20
2019-01-04T07:32:26.171Z,3.00
2019-01-04T07:37:21.665Z,2.90
2019-01-04T07:42:17.307Z,2.70
2019-01-04T07:47:12.830Z,2.70
2019-01-04T07:52:08.403Z,2.60
2019-01-04T07:57:03.942Z,2.70
2019-01-04T08:01:59.468Z,2.70
2019-01-04T08:06:55.261Z,2.80
2019-01-04T08:11:50.896Z,2.90
2019-01-04T08:16:49.735Z,3.20
2019-01-04T08:21:45.365Z,3.40
2019-01-04T08:26:41.133Z,3.70
2019-01-04T08:31:36.599Z,3.70
2019-01-04T08:36:32.425Z,3.90
2019-01-04T08:41:28.117Z,4.60
2019-01-04T08:46:23.609Z,5.40
2019-01-04T08:51:19.042Z,5.40
2019-01-04T08:56:14.681Z,5.30
2019-01-04T09:01:10.171Z,5.40
2019-01-04T09:06:05.873Z,5.60
2019-01-04T09:11:01.542Z,5.70
2019-01-04T09:15:57.046Z,5.80
2019-01-04T09:20:52.502Z,6.00
2019-01-04T09:25:48.110Z,6.10
2019-01-04T09:30:43.673Z,6.20
2019-01-04T09:35:39.238Z,6.00
2019-01-04T09:40:34.915Z,6.10
2019-01-04T09:45:30.558Z,6.30
2019-01-04T09:50:26.031Z,6.40
2019-01-04T09:55:21.476Z,6.30
2019-01-04T10:00:16.947Z,6.20
2019-01-04T10:05:12.920Z,6.30
2019-01-04T10:10:11.524Z,6.30
2019-01-04T10:15:08.831Z,6.30
2019-01-04T10:20:04.392Z,6.50
2019-01-04T10:24:59.864Z,6.80
2019-01-04T10:29:56.760Z,6.90
2019-01-04T10:34:52.253Z,6.90
2019-01-04T10:39:47.826Z,6.80
2019-01-04T10:44:43.322Z,6.60
2019-01-04T10:49:38.832Z,6.60
2019-01-04T10:54:34.317Z,6.50
2019-01-04T10:59:29.779Z,6.60
2019-01-04T11:04:25.433Z,6.60
2019-01-04T11:09:21.066Z,6.50
2019-01-04T11:14:16.580Z,6.60
2019-01-04T11:19:12.061Z,6.60
2019-01-04T11:24:48.883Z,6.60
2019-01-04T11:30:36.416Z,6.60
2019-01-04T11:36:28.893Z,6.80
2019-01-04T11:42:42.364Z,6.90
2019-01-04T11:48:14.835Z,7.00
2019-01-04T11:53:16.819Z,7.10
2019-01-04T11:58:12.316Z,7.20
2019-01-04T12:03:07.795Z,7.30
2019-01-04T12:08:03.286Z,7.30
2019-01-04T12:12:58.836Z,7.20
2019-01-04T12:17:55.949Z,7.20
2019-01-04T12:22:51.976Z,7.20
2019-01-04T12:27:48.297Z,7.10
2019-01-04T12:32:44.704Z,7.10
2019-01-04T12:37:42.703Z,7.20
2019-01-04T12:42:39.065Z,7.20
2019-01-04T12:47:35.422Z,7.20
2019-01-04T12:52:31.188Z,7.00
2019-01-04T12:57:26.726Z,6.80
2019-01-04T13:02:22.786Z,6.60
2019-01-04T13:07:18.465Z,6.60
2019-01-04T13:12:14.625Z,6.60
2019-01-04T13:17:10.713Z,6.70
2019-01-04T13:22:07.852Z,6.70
2019-01-04T13:27:03.592Z,6.80
2019-01-04T13:31:59.657Z,6.80
2019-01-04T13:36:56.381Z,6.90
2019-01-04T13:41:52.894Z,6.80
2019-01-04T13:46:48.912Z,6.70
2019-01-04T13:51:46.771Z,6.60
2019-01-04T13:56:43.489Z,6.50
2019-01-04T14:01:39.116Z,6.50
2019-01-04T14:06:35.372Z,6.40
2019-01-04T14:11:31.482Z,6.30
2019-01-04T14:16:27.254Z,6.20
2019-01-04T14:21:26.025Z,6.10
2019-01-04T14:26:21.516Z,6.00
2019-01-04T14:31:17.031Z,5.90
2019-01-04T14:36:12.730Z,5.80
2019-01-04T14:41:08.215Z,5.70
2019-01-04T14:46:03.730Z,5.70
2019-01-04T14:50:59.254Z,5.70
2019-01-04T14:55:54.781Z,5.60
2019-01-04T15:00:50.248Z,5.50
2019-01-04T15:05:50.451Z,5.40
2019-01-04T15:10:46.143Z,5.40
2019-01-04T15:15:41.746Z,5.30
2019-01-04T15:20:37.263Z,5.30
2019-01-04T15:25:32.802Z,5.20
2019-01-04T15:30:28.309Z,5.20
2019-01-04T15:35:24.023Z,5.10
2019-01-04T15:40:19.527Z,5.10
2019-01-04T15:45:15.113Z,5.10
2019-01-04T15:50:11.158Z,5.00
2019-01-04T15:55:06.702Z,5.00
2019-01-04T16:00:02.216Z,5.00
2019-01-04T16:04:57.701Z,5.10
2019-01-04T16:09:53.172Z,5.00
2019-01-04T16:14:48.823Z,5.00
2019-01-04T16:19:44.299Z,4.90
2019-01-04T16:24:39.803Z,4.90
2019-01-04T16:29:35.331Z,4.90
2019-01-04T16:34:30.975Z,4.80
2019-01-04T16:39:26.504Z,4.80
2019-01-04T16:44:21.986Z,4.80
2019-01-04T16:49:17.546Z,4.80
2019-01-04T16:54:13.040Z,4.80
2019-01-04T16:59:08.549Z,4.80
2019-01-04T17:04:04.004Z,4.80
2019-01-04T17:08:59.525Z,4.70
2019-01-04T17:13:55.903Z,4.70
2019-01-04T17:18:51.493Z,4.70
2019-01-04T17:23:46.941Z,4.70
2019-01-04T17:28:42.631Z,4.70
2019-01-04T17:33:38.591Z,4.70
2019-01-04T17:38:34.122Z,4.70
2019-01-04T17:43:29.659Z,4.70
2019-01-04T17:48:25.138Z,4.70
2019-01-04T17:53:20.623Z,4.70
2019-01-04T17:58:16.087Z,4.70
2019-01-04T18:03:11.668Z,4.70
2019-01-04T18:08:07.154Z,4.60
2019-01-04T18:13:02.636Z,4.60
2019-01-04T18:17:58.701Z,4.60
2019-01-04T18:22:54.339Z,4.60
2019-01-04T18:27:49.839Z,4.60
2019-01-04T18:32:45.307Z,4.60
2019-01-04T18:37:40.802Z,4.50
2019-01-04T18:42:36.245Z,4.50
2019-01-04T18:47:31.778Z,4.40
2019-01-04T18:52:27.229Z,4.40
2019-01-04T18:57:22.847Z,4.40
2019-01-04T19:02:18.373Z,4.40
2019-01-04T19:07:15.614Z,4.40
2019-01-04T19:12:11.077Z,4.40
2019-01-04T19:17:06.845Z,4.40
2019-01-04T19:22:02.308Z,4.40
2019-01-04T19:26:57.766Z,4.40
2019-01-04T19:31:53.227Z,4.40
2019-01-04T19:36:48.691Z,4.40
2019-01-04T19:41:44.217Z,4.40
2019-01-04T19:46:39.699Z,4.40
2019-01-04T19:51:35.253Z,4.40
2019-01-04T19:56:30.826Z,4.40
2019-01-04T20:01:26.271Z,4.40
2019-01-04T20:07:55.039Z,4.40
2019-01-04T20:14:12.329Z,4.40
2019-01-04T20:19:26.765Z,4.40
2019-01-04T20:24:49.910Z,4.40
2019-01-04T20:30:03.565Z,4.40
2019-01-04T20:35:16.590Z,4.40
2019-01-04T20:40:36.712Z,4.40
2019-01-04T20:46:04.226Z,4.40
2019-01-04T20:51:21.336Z,4.40
2019-01-04T20:56:35.690Z,4.50
2019-01-04T21:01:51.530Z,4.40
2019-01-04T21:07:04.537Z,4.50
2019-01-04T21:12:19.010Z,4.50
2019-01-04T21:17:45.329Z,4.50
2019-01-04T21:23:08.422Z,4.40
2019-01-04T21:28:31.875Z,4.40
2019-01-04T21:33:44.801Z,4.40
2019-01-04T21:39:04.837Z,4.30
2019-01-04T21:44:22.223Z,4.30
2019-01-04T21:49:36.549Z,4.30
2019-01-04T21:54:56.838Z,4.30
2019-01-04T22:00:13.943Z,4.30
2019-01-04T22:05:43.219Z,4.30
2019-01-04T22:10:57.574Z,4.20
2019-01-04T22:16:10.397Z,4.30
2019-01-04T22:21:23.148Z,4.20
2019-01-04T22:26:43.708Z,4.20
2019-01-04T22:31:58.050Z,4.20
2019-01-04T22:37:12.411Z,4.30
2019-01-04T22:42:24.852Z,4.30
2019-01-04T22:47:42.270Z,4.40
2019-01-04T22:52:55.430Z,4.40
2019-01-04T22:58:08.504Z,4.60
2019-01-04T23:03:08.885Z,4.90
2019-01-04T23:08:22.706Z,5.30
2019-01-04T23:13:38.830Z,5.40
2019-01-04T23:18:59.961Z,5.40
2019-01-04T23:24:29.556Z,5.20
2019-01-04T23:29:43.839Z,5.10
2019-01-04T23:35:01.191Z,5.10
2019-01-04T23:40:28.248Z,5.10
2019-01-04T23:45:40.936Z,5.10
2019-01-04T23:51:11.188Z,5.00
2019-01-04T23:56:22.560Z,5.00
